UPSVAC Airport Information Service

Santo Domingo Las Americas International Airport

ICAO: MDSD Country: Dominican Republic
Latitude: 18.4297 Longitude: -69.6689
Latest Arrival : UPS2529 (KMIA-MDSD) Latest Departure : UPS378 (MDSD-KMIA)


WX CaptureLIVE
Data provided by noaa.gov | Fetched at 23:12:31

METAR : MDSD 112200Z 13006KT 9999 BKN019 OVC300 28/23 Q1015

TAF : MDSD 111600Z 1118/1218 14012KT 9999 FEW020CB SCT022 BKN300 BECMG 1200/1202 04006KT


Runway Data for MDSD
Data provided by openaviationdata.com

Runway ID Mag Var Hdg Length Elevation Surface ILS Freq ILS Id ILS Slope
17 -11 171° 11043 ft 58 ft Asphalt 108.9 ICDO 3
35 -11 351° 11043 ft 58 ft Asphalt -- -- --

Santo Domingo Las Americas International Airport, Dominican Republic
Use only for reference purposes



Not for navigational purposes.